KMDZ

Taylor County Airport

Medford, Wisconsin, USA
METAR KMDZ 250115Z AUTO 19008KT 10SM CLR 26/16 A2996 RMK AO2 T02550162
Observed Flight Rules
May-25 @ 01:15 UTC (6 minutes ago) Visual Flight Rules
Wind Visibility Clouds
190° at 8 knots 10 miles
  • Clear skies
Temperatures Readings
Current 26°C / 79°F
Dewpoint 16°C / 61°F
Humidity 54%
Altimeter 29.96" Hg
Pressure 1015 hPa
Elevation 448
METAR KMDZ 250115Z AUTO 19008KT 10SM CLR 26/16 A2996 RMK AO2 T02550162
Observed Flight Rules
May-25 @ 01:15 UTC
(6 minutes ago)
VFR
Wind Visibility
190° at 8 knots 10 miles
Clouds
  • Clear skies
Temperature Dewpoint
26°C / 79°F 16°C / 61°F
Humidity Altimeter Pressure
54% 29.96" Hg 1015 hPa